Decoded Metar for KMIW (MARSHALLTOWN in IA, USA) (IATA:MIW) | Meteo·Mobile Aviation Weather
aviador You're here:

KMIW Decoded Metar

MARSHALLTOWN in IA, USA
Report Time2018-12-14 15:53:00
UTC Time2018-12-14 16:35:49
Flight Rules lifr LIFR
Wind350° at 03 kt
W.Decomp.*RWY 36: 2.9 kt HW 0.6 kt LCW
RWY 31: 2.3 kt HW 1.9 kt RCW
W.Rank350° ranks 19
Current wind is below 350° avg. (10.1)
Visibility402 m
Phenomena:Freezing Fog
Clouds:N/A
Ceiling200 ft
Temp-4°C (ISA -17)
Dew Point-4°C (100% RH)
AAT-7.6°C
QNH1025 hPa
Density Alt-1,473 ft
Elevation971 ft
Report Wrong Elevation
Raw Report
KMIW 141553Z AUTO 35003KT 1/4SM FZFG VV002 M04/M04 A3027 RMK AO2
SLP262 I1000 T10391039=

Extra information for KMIW:More info

Metar Taf Metar & Taf Last 4 Metars F.Rules Stats Wind Profile Meteogram Temp Stats Airport Information Weather charts Add Link Nearby VenuesMetar ALERT Operation Metar Decoded Social comments

AIRNAV info for KMIW